Berryville, Arkansas
Current Conditions -  °F | °C
As of 2:35 AM on Saturday 29 Nov 2014 (Local Time) from KBBG Reporting Station
Clear Clear  
Wind Chill: 54°   Ceiling: Unl
Heat Index: 54°   Visibility: 10mi
Dew Point: 46°   Wind: 9mph
Humidity: 77%   Direction: 220°SW
Pressure: 29.86"   Gusts: 16mph
Location:  36.36°N, 93.57°W
Report Text: KBBG 290835Z AUTO 22008G14KT 190V250 10SM CLR 12/08 A2986 RMK AO2
Loading
Personal Weather Stations






























Interactive Weather Map New forecast layout! Learn more

10-Day Weather Forecast

Advertisements
Track Severe Weather on mobile